Time;durP1;ratioP1;P1;durP2;ratioP2;P2;SDS_P1;SDS_P2;PMS_P1;PMS_P2;Temp;Humidity;BMP_temperature;BMP_pressure;BME280_temperature;BME280_humidity;BME280_pressure;Samples;Min_cycle;Max_cycle;Signal;HPM_P1;HPM_P2
2021/07/10 00:00:44;;;;;;;10.37;9.37;;;14.90;99.90;;;;;;5053841;28;21125;-86
2021/07/10 00:03:13;;;;;;;11.07;9.87;;;15.00;99.90;;;;;;5053060;28;21241;-84
2021/07/10 00:05:41;;;;;;;9.57;8.77;;;15.00;99.90;;;;;;5051557;28;20614;-84
2021/07/10 00:08:10;;;;;;;9.50;8.67;;;15.00;99.90;;;;;;5051924;28;20748;-84
2021/07/10 00:10:38;;;;;;;10.07;9.17;;;15.00;99.90;;;;;;5046186;28;20674;-84
2021/07/10 00:13:05;;;;;;;9.97;9.17;;;14.80;99.90;;;;;;5051662;28;20606;-84
2021/07/10 00:15:32;;;;;;;9.40;8.60;;;14.70;99.90;;;;;;5051228;28;20637;-84
2021/07/10 00:17:59;;;;;;;11.17;10.20;;;14.60;99.90;;;;;;5051455;28;20604;-84
2021/07/10 00:20:28;;;;;;;10.83;9.90;;;14.70;99.90;;;;;;5053200;28;20990;-85
2021/07/10 00:22:54;;;;;;;11.67;10.47;;;14.70;99.90;;;;;;5039948;28;20630;-84
2021/07/10 00:25:22;;;;;;;11.77;10.13;;;14.60;99.90;;;;;;5028505;28;21239;-85
2021/07/10 00:27:50;;;;;;;10.33;9.30;;;14.70;99.90;;;;;;5065288;28;20716;-85
2021/07/10 00:30:20;;;;;;;10.83;9.93;;;14.40;99.90;;;;;;5073212;28;20625;-85
2021/07/10 00:32:48;;;;;;;11.13;10.03;;;14.50;99.90;;;;;;5073484;28;21039;-84
2021/07/10 00:35:15;;;;;;;12.20;10.67;;;14.50;99.90;;;;;;5071514;28;20657;-84
2021/07/10 00:37:45;;;;;;;10.00;9.10;;;14.50;99.90;;;;;;5039758;28;21065;-84
2021/07/10 00:40:13;;;;;;;10.40;9.50;;;14.50;99.90;;;;;;5030581;28;20665;-84
2021/07/10 00:42:41;;;;;;;11.47;10.37;;;14.50;99.90;;;;;;5030627;28;20615;-84
2021/07/10 00:45:10;;;;;;;10.57;9.67;;;14.50;99.90;;;;;;5032630;28;20615;-84
2021/07/10 00:47:38;;;;;;;9.57;8.77;;;14.60;99.90;;;;;;5032756;28;21144;-84
2021/07/10 00:50:09;;;;;;;9.93;9.13;;;14.50;99.90;;;;;;5040601;28;20618;-84
2021/07/10 00:52:37;;;;;;;10.27;9.37;;;14.60;99.90;;;;;;5052405;28;20618;-84
2021/07/10 00:55:07;;;;;;;10.43;9.60;;;14.60;99.90;;;;;;5052187;28;20650;-84
2021/07/10 00:57:36;;;;;;;8.80;8.10;;;14.60;99.90;;;;;;5031447;28;20670;-84
2021/07/10 01:00:04;;;;;;;10.03;9.13;;;14.50;99.90;;;;;;5032821;28;20634;-84
2021/07/10 01:02:32;;;;;;;11.50;8.83;;;14.50;99.90;;;;;;5032193;28;20638;-84
2021/07/10 01:05:01;;;;;;;10.53;9.63;;;14.40;99.90;;;;;;5048454;28;20652;-84
2021/07/10 01:07:29;;;;;;;10.73;9.63;;;14.40;99.90;;;;;;5051970;28;21487;-83
2021/07/10 01:09:58;;;;;;;10.10;9.20;;;14.40;99.90;;;;;;5051134;28;20740;-84
2021/07/10 01:12:27;;;;;;;12.10;10.83;;;14.30;99.90;;;;;;5027637;28;20654;-84
2021/07/10 01:14:57;;;;;;;10.47;9.47;;;14.20;99.90;;;;;;5056487;28;20634;-84
2021/07/10 01:17:26;;;;;;;11.40;10.40;;;14.20;99.90;;;;;;5052151;28;20636;-83
2021/07/10 01:19:58;;;;;;;10.27;9.27;;;14.30;99.90;;;;;;5064065;28;20676;-84
2021/07/10 01:22:28;;;;;;;11.17;10.17;;;14.30;99.90;;;;;;5058660;28;21166;-83
2021/07/10 01:24:56;;;;;;;12.27;11.10;;;14.30;99.90;;;;;;5071652;28;20629;-84
2021/07/10 01:27:25;;;;;;;11.93;10.83;;;14.20;99.90;;;;;;5053600;28;20661;-83
2021/07/10 01:29:55;;;;;;;11.70;10.60;;;14.30;99.90;;;;;;5052116;28;20612;-84
2021/07/10 01:32:25;;;;;;;12.33;10.93;;;14.30;99.90;;;;;;5052155;28;21084;-84
2021/07/10 01:34:53;;;;;;;12.97;11.10;;;14.30;99.90;;;;;;5055191;28;20680;-84
2021/07/10 01:37:22;;;;;;;10.07;9.27;;;14.30;99.90;;;;;;5061800;28;21178;-84
2021/07/10 01:39:53;;;;;;;10.87;8.97;;;14.30;99.90;;;;;;5051688;28;20662;-84
2021/07/10 01:42:22;;;;;;;10.23;9.33;;;14.30;99.90;;;;;;5027890;28;20693;-84
2021/07/10 01:44:51;;;;;;;11.37;10.37;;;14.30;99.90;;;;;;5031185;28;20665;-84
2021/07/10 01:47:21;;;;;;;12.23;10.20;;;14.30;99.90;;;;;;5045714;28;20618;-84
2021/07/10 01:50:00;;;;;;;11.43;10.30;;;14.20;99.90;;;;;;5059758;28;20965;-84
2021/07/10 01:52:32;;;;;;;13.10;10.13;;;14.20;99.90;;;;;;5056650;28;20629;-84
2021/07/10 01:55:03;;;;;;;12.40;11.30;;;14.10;99.90;;;;;;5044531;28;20654;-84
2021/07/10 01:57:31;;;;;;;12.33;11.30;;;14.10;99.90;;;;;;5037050;28;21238;-84
2021/07/10 01:59:59;;;;;;;11.10;9.90;;;14.00;99.90;;;;;;5051616;28;20967;-84
2021/07/10 02:02:27;;;;;;;12.37;11.27;;;14.10;99.90;;;;;;5051457;28;20621;-83
2021/07/10 02:04:55;;;;;;;11.40;9.67;;;14.00;99.90;;;;;;5037584;28;20631;-84
2021/07/10 02:07:23;;;;;;;12.47;11.30;;;14.00;99.90;;;;;;5031353;28;20946;-84
2021/07/10 02:09:51;;;;;;;10.03;9.03;;;13.90;99.90;;;;;;5030963;28;20611;-84
2021/07/10 02:12:20;;;;;;;10.50;9.60;;;13.80;99.90;;;;;;5026085;28;20704;-83
2021/07/10 02:14:48;;;;;;;10.03;9.13;;;13.90;99.90;;;;;;5030810;28;20643;-83
2021/07/10 02:17:17;;;;;;;10.40;9.50;;;13.80;99.90;;;;;;5031150;28;20967;-83
2021/07/10 02:19:44;;;;;;;11.07;10.13;;;13.80;99.90;;;;;;5035295;28;20627;-84
2021/07/10 02:22:12;;;;;;;11.50;8.97;;;13.80;99.90;;;;;;5030985;28;20604;-84
2021/07/10 02:24:40;;;;;;;11.67;10.50;;;13.80;99.90;;;;;;5030760;28;20978;-84
2021/07/10 02:27:08;;;;;;;10.93;9.67;;;13.80;99.90;;;;;;5055526;28;20627;-84
2021/07/10 02:29:37;;;;;;;11.70;10.60;;;13.70;99.90;;;;;;5071362;28;20620;-84
2021/07/10 02:32:06;;;;;;;11.90;10.80;;;13.70;99.90;;;;;;5061352;28;20630;-84
2021/07/10 02:34:34;;;;;;;10.93;9.93;;;13.60;99.90;;;;;;5050360;28;20636;-84
2021/07/10 02:37:05;;;;;;;11.43;10.43;;;13.60;99.90;;;;;;5042743;28;20631;-84
2021/07/10 02:39:33;;;;;;;11.20;10.10;;;13.60;99.90;;;;;;5030788;28;20990;-84
2021/07/10 02:42:01;;;;;;;10.77;9.80;;;13.70;99.90;;;;;;5030770;28;20615;-84
2021/07/10 02:44:29;;;;;;;12.80;11.50;;;13.60;99.90;;;;;;5025601;28;20684;-84
2021/07/10 02:46:58;;;;;;;11.23;10.13;;;13.60;99.90;;;;;;5030764;28;21020;-84
2021/07/10 02:49:25;;;;;;;10.17;9.17;;;13.50;99.90;;;;;;5049582;28;20621;-85
2021/07/10 02:51:51;;;;;;;11.63;10.43;;;13.50;99.90;;;;;;5051231;28;21131;-84
2021/07/10 02:54:18;;;;;;;11.63;10.67;;;13.50;99.90;;;;;;5050368;28;21024;-84
2021/07/10 02:56:45;;;;;;;11.50;10.40;;;13.50;99.90;;;;;;5050667;28;20649;-85
2021/07/10 02:59:12;;;;;;;11.07;10.00;;;13.50;99.90;;;;;;5049315;28;21541;-85
2021/07/10 03:01:39;;;;;;;11.80;10.70;;;13.50;99.90;;;;;;5045878;28;20618;-84
2021/07/10 03:04:08;;;;;;;11.70;10.60;;;13.40;99.90;;;;;;5049996;28;21399;-84
2021/07/10 03:06:35;;;;;;;12.20;10.90;;;13.50;99.90;;;;;;5050520;28;20614;-84
2021/07/10 03:09:03;;;;;;;11.50;9.40;;;13.50;99.90;;;;;;5050536;28;20699;-84
2021/07/10 03:11:30;;;;;;;13.53;12.20;;;13.50;99.90;;;;;;5036457;28;20627;-84
2021/07/10 03:13:57;;;;;;;11.93;10.87;;;13.50;99.90;;;;;;5030827;28;20755;-83
2021/07/10 03:16:24;;;;;;;12.30;11.20;;;13.50;99.90;;;;;;5023864;28;20662;-84
2021/07/10 03:18:51;;;;;;;11.47;10.43;;;13.50;99.90;;;;;;5034258;28;20684;-83
2021/07/10 03:21:20;;;;;;;11.77;10.77;;;13.40;99.90;;;;;;5029732;28;20680;-83
2021/07/10 03:23:47;;;;;;;11.43;10.40;;;13.50;99.90;;;;;;5030099;28;20641;-83
2021/07/10 03:26:14;;;;;;;13.77;10.43;;;13.50;99.90;;;;;;5039656;28;20621;-82
2021/07/10 03:28:42;;;;;;;12.17;11.10;;;13.50;99.90;;;;;;5070477;28;20972;-82
2021/07/10 03:31:09;;;;;;;12.73;11.47;;;13.50;99.90;;;;;;5051141;28;20642;-82
2021/07/10 03:33:38;;;;;;;12.17;10.90;;;13.50;99.90;;;;;;5050377;28;20617;-82
2021/07/10 03:36:07;;;;;;;13.17;11.90;;;13.40;99.90;;;;;;5049765;28;21304;-82
2021/07/10 03:38:39;;;;;;;12.03;10.83;;;13.40;99.90;;;;;;5030305;28;20602;-83
2021/07/10 03:41:07;;;;;;;12.30;11.17;;;13.40;99.90;;;;;;5030383;28;20745;-83
2021/07/10 03:43:35;;;;;;;13.70;12.33;;;13.30;99.90;;;;;;5029869;28;20621;-83
2021/07/10 03:46:03;;;;;;;12.20;11.07;;;13.30;99.90;;;;;;5024409;28;20645;-82
2021/07/10 03:48:31;;;;;;;11.80;10.70;;;13.30;99.90;;;;;;5030022;28;20641;-82
2021/07/10 03:50:59;;;;;;;11.40;9.90;;;13.30;99.90;;;;;;5030283;28;20714;-83
2021/07/10 03:53:27;;;;;;;12.17;11.07;;;13.20;99.90;;;;;;5029576;28;20630;-83
2021/07/10 03:55:56;;;;;;;13.80;11.33;;;13.20;99.90;;;;;;5029391;28;20636;-83
2021/07/10 03:58:23;;;;;;;14.23;11.00;;;13.20;99.90;;;;;;5030003;28;20658;-83
2021/07/10 04:00:51;;;;;;;12.23;11.07;;;13.20;99.90;;;;;;5034367;28;20654;-83
2021/07/10 04:03:18;;;;;;;11.73;10.73;;;13.30;99.90;;;;;;5049760;28;21461;-83
2021/07/10 04:05:46;;;;;;;11.90;10.27;;;13.30;99.90;;;;;;5050214;28;20637;-82
2021/07/10 04:08:14;;;;;;;12.17;11.07;;;13.30;99.90;;;;;;5049654;28;20618;-83
2021/07/10 04:10:41;;;;;;;16.73;12.07;;;13.30;99.90;;;;;;5042511;28;21017;-84
2021/07/10 04:13:12;;;;;;;12.30;11.00;;;13.40;99.90;;;;;;5026769;28;20726;-83
2021/07/10 04:15:40;;;;;;;12.20;11.00;;;13.40;99.90;;;;;;5044310;28;20650;-83
2021/07/10 04:18:07;;;;;;;11.73;10.73;;;13.40;99.90;;;;;;5044354;28;20649;-83
2021/07/10 04:20:34;;;;;;;12.43;11.20;;;13.40;99.90;;;;;;5030133;28;20746;-83
2021/07/10 04:23:01;;;;;;;12.50;11.30;;;13.40;99.90;;;;;;5029740;28;20990;-83
2021/07/10 04:25:28;;;;;;;12.47;11.27;;;13.40;99.90;;;;;;5029357;28;20607;-84
2021/07/10 04:27:55;;;;;;;13.60;11.67;;;13.50;99.90;;;;;;5058733;28;20624;-83
2021/07/10 04:30:23;;;;;;;12.10;11.00;;;13.50;99.90;;;;;;5030228;28;20630;-83
2021/07/10 04:32:51;;;;;;;12.60;11.50;;;13.60;99.90;;;;;;5030559;28;20603;-84
2021/07/10 04:35:19;;;;;;;14.67;13.20;;;13.70;99.90;;;;;;5033126;28;20646;-83
2021/07/10 04:37:47;;;;;;;12.60;11.40;;;13.80;99.90;;;;;;5033043;28;20610;-84
2021/07/10 04:40:14;;;;;;;15.63;12.33;;;13.80;99.90;;;;;;5033193;28;20633;-84
2021/07/10 04:42:44;;;;;;;14.03;12.30;;;13.80;99.90;;;;;;5033554;28;21144;-84
2021/07/10 04:45:12;;;;;;;13.30;11.73;;;13.80;99.90;;;;;;5029257;28;20650;-84
2021/07/10 04:47:41;;;;;;;13.47;12.23;;;13.90;99.90;;;;;;5033427;28;20627;-84
2021/07/10 04:50:10;;;;;;;13.67;12.60;;;14.00;99.90;;;;;;5032701;28;20629;-84
2021/07/10 04:52:37;;;;;;;13.40;11.83;;;14.10;99.90;;;;;;5039681;28;21248;-84
2021/07/10 04:55:05;;;;;;;14.03;12.63;;;14.20;99.90;;;;;;5050584;28;20686;-84
2021/07/10 04:57:33;;;;;;;13.53;12.33;;;14.30;99.90;;;;;;5073046;28;21022;-84
2021/07/10 05:00:00;;;;;;;14.53;13.27;;;14.30;99.90;;;;;;5065769;28;20649;-84
2021/07/10 05:02:27;;;;;;;16.33;12.53;;;14.40;99.90;;;;;;5031115;28;20611;-84
2021/07/10 05:04:55;;;;;;;13.40;12.20;;;14.50;99.90;;;;;;5032197;28;21284;-84
2021/07/10 05:07:22;;;;;;;12.37;11.27;;;14.50;99.90;;;;;;5033114;28;20618;-84
2021/07/10 05:09:49;;;;;;;13.40;12.00;;;14.60;99.90;;;;;;5032894;28;20672;-84
2021/07/10 05:12:18;;;;;;;13.00;11.90;;;14.70;99.90;;;;;;5032416;28;20969;-83
2021/07/10 05:14:45;;;;;;;13.17;11.90;;;14.70;99.90;;;;;;5032363;28;20666;-83
2021/07/10 05:17:12;;;;;;;12.10;10.90;;;14.80;99.90;;;;;;5027021;28;20756;-84
2021/07/10 05:19:39;;;;;;;13.40;12.20;;;14.90;99.90;;;;;;5047492;28;20630;-83
2021/07/10 05:22:07;;;;;;;17.13;11.47;;;15.00;99.90;;;;;;5052473;28;20614;-84
2021/07/10 05:24:34;;;;;;;12.27;11.07;;;15.10;99.90;;;;;;5051939;28;20617;-84
2021/07/10 05:27:01;;;;;;;12.63;11.33;;;15.20;99.90;;;;;;5049658;28;20631;-83
2021/07/10 05:29:29;;;;;;;14.50;13.00;;;15.20;99.90;;;;;;5032981;28;20614;-84
2021/07/10 05:31:56;;;;;;;13.33;12.13;;;15.30;99.90;;;;;;5032175;28;20661;-84
2021/07/10 05:34:22;;;;;;;12.47;11.27;;;15.40;99.90;;;;;;5032985;28;20983;-83
2021/07/10 05:36:49;;;;;;;15.10;12.30;;;15.50;99.90;;;;;;5032129;28;20655;-84
2021/07/10 05:39:18;;;;;;;12.70;11.60;;;15.60;99.90;;;;;;5031775;28;21155;-83
2021/07/10 05:41:44;;;;;;;13.90;12.53;;;15.60;99.90;;;;;;5032100;28;20615;-83
2021/07/10 05:44:11;;;;;;;13.63;12.40;;;15.60;99.90;;;;;;5031452;28;20602;-84
2021/07/10 05:46:39;;;;;;;13.10;12.00;;;15.50;99.90;;;;;;5030080;28;20617;-83
2021/07/10 05:49:06;;;;;;;14.03;12.60;;;15.70;99.90;;;;;;5030895;28;20716;-83
2021/07/10 05:51:33;;;;;;;12.67;11.40;;;15.60;99.90;;;;;;5032134;28;21006;-83
2021/07/10 05:54:00;;;;;;;13.37;12.17;;;15.70;99.90;;;;;;5030879;28;20619;-83
2021/07/10 05:56:28;;;;;;;13.57;12.27;;;15.80;99.90;;;;;;5029566;28;20650;-83
2021/07/10 05:58:55;;;;;;;13.53;12.23;;;16.00;99.90;;;;;;5031162;28;20631;-83
2021/07/10 06:01:22;;;;;;;12.80;11.60;;;16.10;99.90;;;;;;5031097;28;20960;-83
2021/07/10 06:03:49;;;;;;;12.53;11.43;;;16.20;99.90;;;;;;5031494;28;20604;-84
2021/07/10 06:06:16;;;;;;;12.80;11.60;;;16.30;99.90;;;;;;5032913;28;20625;-83
2021/07/10 06:08:43;;;;;;;11.77;10.73;;;16.40;99.90;;;;;;5043194;28;20627;-83
2021/07/10 06:11:10;;;;;;;12.70;11.50;;;16.50;99.90;;;;;;5030154;28;20673;-83
2021/07/10 06:13:38;;;;;;;11.60;10.67;;;16.50;99.90;;;;;;5030601;28;20655;-84
2021/07/10 06:16:06;;;;;;;12.63;11.40;;;16.50;99.90;;;;;;5029415;28;21268;-83
2021/07/10 06:18:33;;;;;;;12.87;11.30;;;16.60;99.90;;;;;;5030690;28;20600;-84
2021/07/10 06:21:01;;;;;;;13.20;12.07;;;16.70;99.90;;;;;;5030129;28;20614;-84
2021/07/10 06:23:28;;;;;;;12.00;10.80;;;16.70;99.90;;;;;;5032013;28;20677;-83
2021/07/10 06:25:55;;;;;;;15.73;11.03;;;16.80;99.90;;;;;;5033838;28;21161;-84
2021/07/10 06:28:22;;;;;;;13.00;11.90;;;16.90;99.90;;;;;;5070831;28;20607;-83
2021/07/10 06:30:50;;;;;;;15.67;12.43;;;17.00;99.90;;;;;;5070467;28;20607;-83
2021/07/10 06:33:17;;;;;;;12.33;11.27;;;17.00;99.90;;;;;;5069940;28;20681;-84
2021/07/10 06:35:44;;;;;;;10.90;9.90;;;17.20;99.90;;;;;;5070508;28;20715;-84
2021/07/10 06:38:11;;;;;;;11.00;10.10;;;17.20;99.90;;;;;;5071076;28;20611;-84
2021/07/10 06:40:38;;;;;;;11.53;10.53;;;17.20;99.90;;;;;;5036018;28;20687;-84
2021/07/10 06:43:05;;;;;;;10.90;10.00;;;17.30;99.90;;;;;;5030908;28;20606;-84
2021/07/10 06:45:32;;;;;;;12.13;9.93;;;17.40;99.90;;;;;;5030840;28;20626;-84
2021/07/10 06:48:01;;;;;;;11.63;10.53;;;17.50;99.90;;;;;;5030521;28;20609;-83
2021/07/10 06:50:29;;;;;;;10.83;10.00;;;17.50;99.90;;;;;;5030978;28;20658;-84
2021/07/10 06:52:56;;;;;;;10.30;9.37;;;17.50;99.90;;;;;;5030450;28;20632;-84
2021/07/10 06:55:23;;;;;;;9.93;9.17;;;17.70;99.90;;;;;;5029061;28;20616;-84
2021/07/10 06:57:51;;;;;;;9.93;9.13;;;17.70;99.90;;;;;;5028602;28;20646;-83
2021/07/10 07:00:19;;;;;;;11.40;9.30;;;17.80;99.90;;;;;;5028806;28;20633;-84
2021/07/10 07:02:47;;;;;;;10.77;9.90;;;18.00;99.90;;;;;;5029618;28;20657;-84
2021/07/10 07:05:16;;;;;;;10.97;9.73;;;18.00;99.90;;;;;;5028685;28;20629;-83
2021/07/10 07:07:43;;;;;;;11.07;9.97;;;18.10;99.90;;;;;;5027194;28;20607;-83
2021/07/10 07:10:12;;;;;;;10.43;9.37;;;18.00;99.90;;;;;;5027647;28;20673;-84
2021/07/10 07:12:40;;;;;;;10.47;9.37;;;18.10;99.90;;;;;;5029708;28;20618;-85
2021/07/10 07:15:10;;;;;;;10.50;9.47;;;18.20;99.90;;;;;;5028691;28;21036;-85
2021/07/10 07:17:37;;;;;;;10.07;9.27;;;18.50;99.90;;;;;;5029611;28;20654;-83
2021/07/10 07:20:05;;;;;;;9.17;8.43;;;18.50;99.90;;;;;;5029093;28;20615;-85
2021/07/10 07:22:34;;;;;;;9.57;8.80;;;18.30;99.90;;;;;;5030107;28;20607;-85
2021/07/10 07:25:01;;;;;;;10.43;9.53;;;18.40;99.90;;;;;;5030108;28;20626;-85
2021/07/10 07:27:28;;;;;;;10.03;9.13;;;18.60;99.90;;;;;;5060154;28;21177;-86
2021/07/10 07:29:55;;;;;;;8.73;8.13;;;18.70;99.90;;;;;;5044231;28;20611;-85
2021/07/10 07:32:22;;;;;;;7.57;6.97;;;18.90;99.90;;;;;;5038676;28;20696;-86
2021/07/10 07:34:49;;;;;;;7.70;7.10;;;19.00;99.90;;;;;;5049534;28;20598;-86
2021/07/10 07:37:16;;;;;;;8.27;7.57;;;19.00;99.90;;;;;;5049733;28;20662;-85
2021/07/10 07:39:46;;;;;;;8.17;7.50;;;19.10;99.30;;;;;;5049493;28;20956;-87
2021/07/10 07:42:14;;;;;;;8.30;7.53;;;19.20;99.40;;;;;;5049940;28;20957;-86
2021/07/10 07:44:42;;;;;;;8.17;7.47;;;19.40;99.90;;;;;;5048366;28;20624;-88
2021/07/10 07:47:10;;;;;;;7.90;7.30;;;19.50;99.00;;;;;;5049903;28;20642;-88
2021/07/10 07:49:37;;;;;;;7.90;7.30;;;19.60;98.80;;;;;;5049954;28;20715;-86
2021/07/10 07:52:05;;;;;;;7.80;7.20;;;19.60;98.60;;;;;;5050093;28;21163;-87
2021/07/10 07:54:33;;;;;;;8.23;7.53;;;19.70;97.60;;;;;;5049792;28;20614;-86
2021/07/10 07:57:01;;;;;;;7.57;6.80;;;19.70;97.80;;;;;;5049920;28;20642;-87
2021/07/10 07:59:28;;;;;;;8.57;7.77;;;19.80;98.80;;;;;;5049932;28;20679;-87
2021/07/10 08:01:55;;;;;;;8.13;7.10;;;20.00;99.00;;;;;;5047963;28;20638;-87
2021/07/10 08:04:22;;;;;;;9.17;8.27;;;20.10;98.90;;;;;;5049698;28;20676;-87
2021/07/10 08:06:49;;;;;;;8.53;7.43;;;20.30;98.70;;;;;;5050894;28;20602;-88
2021/07/10 08:09:16;;;;;;;8.30;7.60;;;20.40;97.80;;;;;;5053694;28;20598;-87
2021/07/10 08:11:43;;;;;;;7.10;6.53;;;20.40;97.40;;;;;;5053527;28;20614;-86
2021/07/10 08:14:12;;;;;;;7.53;6.83;;;20.40;98.10;;;;;;5053387;28;20625;-87
2021/07/10 08:16:39;;;;;;;7.30;6.33;;;20.60;98.80;;;;;;5053011;28;20661;-87
2021/07/10 08:19:07;;;;;;;6.80;6.30;;;20.70;97.30;;;;;;5051929;28;20852;-86
2021/07/10 08:21:34;;;;;;;7.10;6.60;;;20.90;97.00;;;;;;5053747;28;20607;-87
2021/07/10 08:24:01;;;;;;;7.77;7.13;;;20.90;95.40;;;;;;5053310;28;21165;-87
2021/07/10 08:26:29;;;;;;;6.83;6.33;;;20.90;95.20;;;;;;5059609;28;20614;-87
2021/07/10 08:28:56;;;;;;;6.10;5.60;;;20.90;96.10;;;;;;5073248;28;21170;-87
2021/07/10 08:31:24;;;;;;;6.23;5.73;;;20.90;94.80;;;;;;5073858;28;20654;-86
2021/07/10 08:33:51;;;;;;;6.60;6.10;;;20.90;95.20;;;;;;5071036;28;20657;-87
2021/07/10 08:36:18;;;;;;;6.43;5.93;;;21.00;95.50;;;;;;5039833;28;20623;-86
2021/07/10 08:38:45;;;;;;;6.53;6.07;;;21.10;94.90;;;;;;5037526;28;20665;-88
2021/07/10 08:41:13;;;;;;;6.30;5.90;;;21.20;94.80;;;;;;5033982;28;20606;-88
2021/07/10 08:43:43;;;;;;;6.43;5.93;;;21.30;94.90;;;;;;5033174;28;21198;-87
2021/07/10 08:46:12;;;;;;;6.47;5.97;;;21.30;94.60;;;;;;5032625;28;20680;-87
2021/07/10 08:48:41;;;;;;;5.70;5.30;;;21.40;94.40;;;;;;5033176;28;20613;-88
2021/07/10 08:51:10;;;;;;;5.40;5.00;;;21.40;93.70;;;;;;5034133;28;21020;-87
2021/07/10 08:53:38;;;;;;;5.57;5.27;;;21.40;92.10;;;;;;5032780;28;20634;-88
2021/07/10 08:56:07;;;;;;;6.33;5.73;;;21.40;92.60;;;;;;5032408;28;20630;-87
2021/07/10 08:58:34;;;;;;;5.27;4.97;;;21.50;92.30;;;;;;5032799;28;21288;-87
2021/07/10 09:01:01;;;;;;;5.50;4.93;;;21.60;92.90;;;;;;5033153;28;20625;-88
2021/07/10 09:03:30;;;;;;;5.67;5.20;;;21.70;92.60;;;;;;5032989;28;20636;-89
2021/07/10 09:05:59;;;;;;;5.77;5.30;;;21.80;92.70;;;;;;5032417;28;20656;-87
2021/07/10 09:08:27;;;;;;;5.50;4.97;;;22.00;92.30;;;;;;5033606;28;20673;-87
2021/07/10 09:10:59;;;;;;;4.47;4.20;;;22.00;91.40;;;;;;5033679;28;20663;-87
2021/07/10 09:13:34;;;;;;;5.33;5.03;;;22.00;91.30;;;;;;5032947;28;20617;-87
2021/07/10 09:16:08;;;;;;;5.43;5.03;;;22.10;89.90;;;;;;5032225;28;21226;-89
2021/07/10 09:18:44;;;;;;;5.50;5.10;;;22.10;89.90;;;;;;5051015;28;20652;-87
2021/07/10 09:21:14;;;;;;;5.40;4.47;;;22.20;90.40;;;;;;5051171;28;21010;-88
2021/07/10 09:23:44;;;;;;;5.27;4.77;;;22.30;89.80;;;;;;5051346;28;21211;-87
2021/07/10 09:26:19;;;;;;;4.50;4.20;;;22.30;90.40;;;;;;5056053;28;21097;-84
2021/07/10 09:28:59;;;;;;;5.23;4.50;;;22.10;90.40;;;;;;5072283;28;20626;-89
2021/07/10 09:31:28;;;;;;;4.90;4.40;;;22.20;88.30;;;;;;5072070;28;20607;-89
2021/07/10 09:34:13;;;;;;;5.30;4.90;;;22.40;90.00;;;;;;5060855;28;20632;-89
2021/07/10 09:37:17;;;;;;;4.30;4.00;;;22.60;86.40;;;;;;5039805;28;20637;-89
2021/07/10 09:39:55;;;;;;;4.30;4.03;;;22.80;84.40;;;;;;5034815;28;20631;-88
2021/07/10 09:42:26;;;;;;;4.37;4.03;;;22.80;88.30;;;;;;5037166;28;20616;-89
2021/07/10 09:44:55;;;;;;;4.13;3.87;;;22.90;85.00;;;;;;5052144;28;20613;-90
2021/07/10 09:47:26;;;;;;;4.70;4.30;;;22.90;82.80;;;;;;5036134;28;20651;-87
2021/07/10 09:49:54;;;;;;;5.00;4.67;;;23.00;84.20;;;;;;5032019;28;20718;-88
2021/07/10 09:52:23;;;;;;;4.70;4.40;;;23.10;86.90;;;;;;5037481;28;20618;-88
2021/07/10 09:54:52;;;;;;;4.50;4.20;;;23.10;84.90;;;;;;5051817;28;20954;-88
2021/07/10 09:57:20;;;;;;;5.70;4.60;;;23.20;86.00;;;;;;5051492;28;20723;-89
2021/07/10 09:59:50;;;;;;;4.30;4.00;;;23.20;85.90;;;;;;5051642;28;20680;-89
2021/07/10 10:02:19;;;;;;;4.83;4.53;;;23.40;85.80;;;;;;5051512;28;20613;-86
2021/07/10 10:04:47;;;;;;;4.40;4.00;;;23.50;83.70;;;;;;5051715;28;20626;-88
2021/07/10 10:07:17;;;;;;;4.60;4.27;;;23.50;83.70;;;;;;5051372;28;20971;-88
2021/07/10 10:09:46;;;;;;;4.03;3.83;;;23.70;81.20;;;;;;5049731;28;20618;-88
2021/07/10 10:12:15;;;;;;;4.77;4.37;;;23.70;82.60;;;;;;5049566;28;21163;-90
2021/07/10 10:14:47;;;;;;;4.30;3.97;;;23.90;84.90;;;;;;5051582;28;20638;-88
2021/07/10 10:17:18;;;;;;;4.90;4.40;;;23.90;80.20;;;;;;5050945;28;20650;-90
2021/07/10 10:19:48;;;;;;;5.00;4.60;;;24.00;81.70;;;;;;5056722;28;20618;-94
2021/07/10 10:22:17;;;;;;;4.40;4.10;;;24.20;82.30;;;;;;5051500;28;20630;-90
2021/07/10 10:24:52;;;;;;;4.93;4.40;;;24.20;82.50;;;;;;5052677;28;20615;-90
2021/07/10 10:27:20;;;;;;;4.20;3.87;;;24.40;80.70;;;;;;5065598;28;20663;-89
2021/07/10 10:29:53;;;;;;;4.43;4.13;;;24.20;78.40;;;;;;5070782;28;21177;-89
2021/07/10 10:32:20;;;;;;;3.90;3.60;;;24.40;80.40;;;;;;5072063;28;20622;-89
2021/07/10 10:34:50;;;;;;;4.40;4.00;;;24.50;75.90;;;;;;5071093;28;20621;-88
2021/07/10 10:37:18;;;;;;;4.90;4.53;;;24.60;79.60;;;;;;5057683;28;20773;-86
2021/07/10 10:39:47;;;;;;;4.73;4.27;;;24.60;74.20;;;;;;5051812;28;20672;-91
2021/07/10 10:42:56;;;;;;;4.63;3.77;;;24.60;77.40;;;;;;5054180;28;20649;-91
2021/07/10 10:46:33;;;;;;;4.47;4.07;;;24.80;74.80;;;;;;5055974;28;20683;-87
2021/07/10 10:49:07;;;;;;;5.10;4.70;;;24.90;79.90;;;;;;5052153;28;20698;-88
2021/07/10 10:51:35;;;;;;;3.90;3.60;;;24.50;75.80;;;;;;5034686;28;20702;-89
2021/07/10 10:54:25;;;;;;;4.37;3.97;;;24.70;76.90;;;;;;5031045;28;21195;-88
2021/07/10 10:56:55;;;;;;;3.83;3.63;;;24.70;76.90;;;;;;5035412;28;20994;-90
2021/07/10 10:59:40;;;;;;;4.20;3.90;;;25.00;76.60;;;;;;5031006;28;20654;-90
2021/07/10 11:02:42;;;;;;;4.20;4.00;;;25.10;76.30;;;;;;5031192;28;20619;-87
2021/07/10 11:05:09;;;;;;;4.90;4.50;;;25.00;74.50;;;;;;5043442;28;20622;-89
2021/07/10 11:07:37;;;;;;;4.90;4.60;;;25.00;78.90;;;;;;5050867;28;20606;-89
2021/07/10 11:10:12;;;;;;;4.13;3.90;;;25.10;73.40;;;;;;5050395;28;20771;-89
2021/07/10 11:13:04;;;;;;;5.10;4.20;;;25.50;75.00;;;;;;5050772;28;20602;-89
2021/07/10 11:15:45;;;;;;;4.90;4.37;;;25.90;71.90;;;;;;5050883;28;20679;-90
2021/07/10 11:18:30;;;;;;;4.20;3.90;;;26.10;72.30;;;;;;5045419;28;20662;-90
2021/07/10 11:21:00;;;;;;;3.73;3.50;;;26.40;71.60;;;;;;5030960;28;20615;-91
2021/07/10 11:23:30;;;;;;;3.87;3.57;;;26.50;69.70;;;;;;5030848;28;21122;-88
2021/07/10 11:25:58;;;;;;;4.73;4.20;;;26.60;69.60;;;;;;5034771;28;20622;-91
2021/07/10 11:28:29;;;;;;;3.50;3.30;;;26.80;66.10;;;;;;5070591;28;20625;-89
2021/07/10 11:30:58;;;;;;;4.13;3.93;;;27.00;67.40;;;;;;5070541;28;20601;-89
2021/07/10 11:33:54;;;;;;;3.63;3.43;;;27.10;65.60;;;;;;5052855;28;20630;-90
2021/07/10 11:36:47;;;;;;;3.87;3.67;;;27.30;65.10;;;;;;5031906;28;20681;-89
2021/07/10 11:39:51;;;;;;;4.17;3.87;;;27.40;63.70;;;;;;5030829;28;21213;-88
2021/07/10 11:42:47;;;;;;;4.47;4.17;;;27.80;64.10;;;;;;5001566;28;21306;-88
2021/07/10 11:45:25;;;;;;;3.93;3.73;;;27.10;66.00;;;;;;5034360;28;21152;-88
2021/07/10 11:47:54;;;;;;;4.10;3.80;;;27.60;65.60;;;;;;5034529;28;20614;-89
2021/07/10 11:50:23;;;;;;;4.47;4.20;;;28.20;66.10;;;;;;5034228;28;20637;-88
2021/07/10 11:52:58;;;;;;;5.10;4.80;;;28.40;62.60;;;;;;5034105;28;20632;-89
2021/07/10 11:55:27;;;;;;;4.30;4.03;;;28.90;63.40;;;;;;5033970;28;21155;-90
2021/07/10 11:57:54;;;;;;;4.23;3.80;;;29.10;65.00;;;;;;5033809;28;20650;-88
2021/07/10 12:00:26;;;;;;;3.83;3.63;;;29.50;59.80;;;;;;5033725;28;20623;-88
2021/07/10 12:02:53;;;;;;;4.00;3.70;;;29.80;58.40;;;;;;5034029;28;20606;-90
2021/07/10 12:05:22;;;;;;;4.23;3.90;;;29.90;60.20;;;;;;5033820;28;20602;-89
2021/07/10 12:07:53;;;;;;;3.80;3.60;;;30.30;58.30;;;;;;5033536;28;20638;-88
2021/07/10 12:10:25;;;;;;;3.93;3.70;;;30.90;56.90;;;;;;5034202;28;20649;-89
2021/07/10 12:12:54;;;;;;;3.90;3.70;;;31.50;56.00;;;;;;5033790;28;20623;-89
2021/07/10 12:15:26;;;;;;;4.00;3.80;;;31.80;55.10;;;;;;5033489;28;21211;-90
2021/07/10 12:17:55;;;;;;;3.93;3.73;;;31.30;55.40;;;;;;5033656;28;20658;-87
2021/07/10 12:20:24;;;;;;;5.80;3.70;;;31.90;56.80;;;;;;5033549;28;20626;-86
2021/07/10 12:22:57;;;;;;;3.83;3.63;;;32.70;54.50;;;;;;5033506;28;20623;-90
2021/07/10 12:25:26;;;;;;;3.50;3.30;;;33.00;53.60;;;;;;5033489;28;20595;-88
2021/07/10 12:27:59;;;;;;;4.40;4.00;;;33.10;53.30;;;;;;5062190;28;20649;-92
2021/07/10 12:30:52;;;;;;;3.33;3.13;;;33.60;52.20;;;;;;5053369;28;20619;-86
2021/07/10 12:33:31;;;;;;;3.50;3.30;;;34.60;49.50;;;;;;5043216;28;20783;-90
2021/07/10 12:36:10;;;;;;;3.10;3.00;;;34.70;49.60;;;;;;5053611;28;20613;-89
2021/07/10 12:38:48;;;;;;;3.83;3.63;;;34.60;48.80;;;;;;5053106;28;20613;-89
2021/07/10 12:41:22;;;;;;;3.60;3.50;;;34.10;49.70;;;;;;5051601;28;20234;-90
2021/07/10 12:43:52;;;;;;;3.37;3.13;;;34.70;49.00;;;;;;5033544;28;21209;-86
2021/07/10 12:46:22;;;;;;;3.07;2.93;;;34.90;48.40;;;;;;5032903;28;20212;-89
2021/07/10 12:48:49;;;;;;;3.90;3.70;;;33.40;47.20;;;;;;5033026;28;20654;-89
2021/07/10 12:51:18;;;;;;;3.80;3.50;;;32.00;49.60;;;;;;5033019;28;20622;-90